»·PEaware :: UAL840 YSSY-KLAX

UAL840 :: YSSY-KLAX

FLIGHT INFORMATION

Flight Status: Arrived
Operator:
United Airlines
More flights by this operator :: More flights under this callsign
Pilot: Bryan S. (13276)
Aircraft: Unknown
(B788)
More flights by this aircraft type
Origin: YSSY Kingsford Smith Intl
Australia
Destination: KLAX Los Angeles Intl
United States
More flights between these airports :: More routes between these airports
Route: NOBAR B580 TABAL B580 VESUN B580 GITON B580 BOILS 00N175W 05N170W 12N160W 17N150W 21N140W 26N130W FICKY GOATZ1
File this flight plan on PilotEdge
Remarks:
Altitude:
(Current/Filed)
35,000ft
Speed:
(Current/Filed)
490kts
Departed: 24-May-17 05:12 PM
Arrived: 24-May-17 11:15 PM
Distance/Time
Traveled:
6509nm/6:03
Distance/Time
To Go:
Arrived

Flight Plot

Page will automatically refresh every two minutes.

Flight plan parsing failed; only flown route is shown


Map Options




Map Legend


Flown Route
Filed Route
Departure Airport
Arrival Airport
Navaid (VOR, NDB)
Fix

Horizontal Profiles

Position Reports

Time Latitude Longitude Heading Altitude Ground
Speed
24-May-17 16:54 -33.935656 151.168133 239 31ft 0kts
24-May-17 16:55 -33.935656 151.168133 239 31ft 0kts
24-May-17 16:56 -33.935656 151.168133 239 31ft 0kts
24-May-17 16:57 -33.935656 151.168133 239 31ft 0kts
24-May-17 16:58 -33.935656 151.168133 239 31ft 0kts
24-May-17 16:59 -33.935534 151.168377 239 31ft 1kts
24-May-17 17:00 -33.935413 151.168619 239 30ft 1kts
24-May-17 17:01 -33.935221 151.169004 239 30ft 0kts
24-May-17 17:02 -33.935221 151.169004 239 30ft 0kts
24-May-17 17:03 -33.935221 151.169004 239 30ft 0kts
24-May-17 17:04 -33.935221 151.169004 239 30ft 0kts
24-May-17 17:05 -33.935221 151.169004 239 30ft 0kts
24-May-17 17:06 -33.935221 151.169004 239 30ft 0kts
24-May-17 17:07 -33.935221 151.169004 239 30ft 0kts
24-May-17 17:08 -33.935221 151.169004 239 30ft 0kts
24-May-17 17:09 -33.935236 151.168971 241 30ft 0kts
24-May-17 17:10 -33.934908 151.169133 101 29ft 7kts
24-May-17 17:11 -33.933995 151.170727 351 26ft 8kts
24-May-17 17:12 -33.931750 151.169396 346 28ft 16kts
24-May-17 17:13 -33.929674 151.170258 75 26ft 7kts
24-May-17 17:14 -33.931524 151.172147 169 27ft 54kts
24-May-17 17:15 -33.971649 151.183423 167 1041ft 183kts
24-May-17 17:16 -34.012360 151.216983 113 3391ft 203kts
24-May-17 17:17 -34.012264 151.285503 57 5469ft 248kts
24-May-17 17:18 -33.970038 151.370614 59 7539ft 319kts
24-May-17 17:19 -33.924046 151.463143 59 10226ft 353kts
24-May-17 17:20 -33.872667 151.566420 60 13077ft 370kts
24-May-17 17:21 -33.819427 151.673641 59 15561ft 385kts
24-May-17 17:22 -33.758223 151.781582 51 17760ft 400kts
24-May-17 17:23 -33.687419 151.886739 50 19738ft 413kts
24-May-17 17:24 -33.614206 151.994925 50 21520ft 424kts
24-May-17 17:25 -33.538851 152.105923 50 23121ft 435kts
24-May-17 17:26 -33.461950 152.218853 49 24556ft 445kts
24-May-17 17:27 -33.382947 152.334506 49 25868ft 454kts
24-May-17 17:28 -33.302132 152.452430 49 27065ft 462kts
24-May-17 17:29 -33.220137 152.571689 49 28148ft 470kts
24-May-17 17:30 -33.136679 152.692680 48 29136ft 477kts
24-May-17 17:31 -33.051765 152.815352 48 29973ft 484kts
24-May-17 17:32 -32.965323 152.939820 48 30722ft 492kts
24-May-17 17:33 -32.877813 153.065401 48 31454ft 498kts
24-May-17 17:34 -32.789450 153.191814 48 32321ft 498kts
24-May-17 17:35 -32.701212 153.317586 47 33192ft 496kts
24-May-17 17:36 -32.613283 153.442496 47 33971ft 495kts
24-May-17 17:37 -32.525314 153.567015 47 34668ft 493kts
24-May-17 17:38 -32.437300 153.691208 47 34997ft 499kts
24-May-17 17:39 -32.346994 153.818190 47 35005ft 512kts
24-May-17 17:40 -32.253958 153.948573 47 35006ft 526kts
24-May-17 17:41 -32.159586 154.080389 47 34996ft 524kts
24-May-17 17:42 -32.065428 154.211416 47 35002ft 526kts
24-May-17 17:43 -31.970853 154.342570 47 35004ft 526kts
24-May-17 17:44 -31.876528 154.472902 47 35003ft 526kts
24-May-17 17:45 -31.781749 154.603399 47 35004ft 526kts
24-May-17 17:46 -31.686658 154.733889 46 34998ft 526kts
24-May-17 17:47 -31.591789 154.863605 46 34998ft 526kts
24-May-17 17:48 -31.496555 154.993389 46 35000ft 526kts
24-May-17 17:49 -31.400934 155.123256 46 35000ft 527kts
24-May-17 17:50 -31.305397 155.252574 47 35002ft 527kts
24-May-17 17:51 -31.209854 155.381467 47 35004ft 527kts
24-May-17 17:52 -31.114094 155.510212 47 35005ft 527kts
24-May-17 17:53 -31.018345 155.638513 47 35007ft 528kts
24-May-17 17:54 -30.921494 155.767899 46 34999ft 532kts
24-May-17 17:55 -30.824055 155.897544 45 34996ft 534kts
24-May-17 17:56 -30.726279 156.027198 45 35001ft 534kts
24-May-17 17:57 -30.628487 156.156500 45 35044ft 534kts
24-May-17 17:58 -30.530559 156.285496 45 35078ft 535kts
24-May-17 17:59 -30.432516 156.414240 45 35078ft 535kts
24-May-17 18:00 -30.334317 156.542764 45 35080ft 534kts
24-May-17 18:01 -30.235735 156.671369 45 35073ft 534kts
24-May-17 18:02 -30.137372 156.799238 45 35073ft 534kts
24-May-17 18:03 -30.039042 156.926675 45 35074ft 534kts
24-May-17 18:04 -29.940438 157.054059 45 35076ft 534kts
24-May-17 18:05 -29.841541 157.181370 45 35075ft 533kts
24-May-17 18:06 -29.743385 157.307397 45 35077ft 533kts
24-May-17 18:07 -29.644447 157.433972 45 35078ft 533kts
24-May-17 18:08 -29.545634 157.559990 45 35080ft 533kts
24-May-17 18:09 -29.446546 157.685983 44 35068ft 532kts
24-May-17 18:10 -29.347482 157.811523 44 35073ft 533kts
24-May-17 18:11 -29.248113 157.937043 44 35073ft 532kts
24-May-17 18:12 -29.148942 158.061973 44 35075ft 533kts
24-May-17 18:13 -29.049036 158.187496 44 35078ft 538kts
24-May-17 18:14 -28.947596 158.314479 43 35081ft 545kts
24-May-17 18:15 -28.846910 158.440000 43 35080ft 545kts
24-May-17 18:16 -28.744863 158.566933 43 35082ft 545kts
24-May-17 18:17 -28.642959 158.693311 42 35065ft 544kts
24-May-17 18:18 -28.540707 158.819702 42 35071ft 544kts
24-May-17 18:19 -28.438183 158.946069 42 35073ft 544kts
24-May-17 18:20 -28.336035 159.071572 42 35071ft 544kts
24-May-17 18:21 -28.233269 159.197423 42 35050ft 543kts
24-May-17 18:22 -28.130982 159.322299 42 35052ft 544kts
24-May-17 18:23 -28.028012 159.447643 42 35055ft 544kts
24-May-17 18:24 -27.925102 159.572544 42 35057ft 543kts
24-May-17 18:25 -27.822365 159.696847 41 35037ft 543kts
24-May-17 18:26 -27.719399 159.821057 41 35044ft 543kts
24-May-17 18:27 -27.616304 159.945053 41 35046ft 543kts
24-May-17 18:28 -27.513241 160.068646 41 35048ft 543kts
24-May-17 18:29 -27.409994 160.192111 41 35050ft 543kts
24-May-17 18:30 -27.306609 160.315375 41 35052ft 543kts
24-May-17 18:31 -27.202943 160.438604 41 35054ft 543kts
24-May-17 18:32 -27.099151 160.561636 41 35057ft 543kts
24-May-17 18:33 -26.995473 160.684289 40 35039ft 544kts
24-May-17 18:34 -26.891050 160.807391 39 35043ft 548kts
24-May-17 18:35 -26.786062 160.930671 38 35045ft 549kts
24-May-17 18:36 -26.681081 161.053681 38 35048ft 549kts
24-May-17 18:37 -26.575754 161.176709 38 35051ft 549kts
24-May-17 18:38 -26.470285 161.299594 38 35053ft 549kts
24-May-17 18:39 -26.364675 161.422298 38 35056ft 549kts
24-May-17 18:40 -26.258945 161.544796 38 35058ft 549kts
24-May-17 18:41 -26.154371 161.665628 38 35035ft 549kts
24-May-17 18:42 -26.049934 161.785943 38 34986ft 549kts
24-May-17 18:43 -25.949771 161.901014 38 34990ft 549kts
24-May-17 18:44 -25.848443 162.017102 38 34993ft 549kts
24-May-17 18:45 -25.746364 162.133744 38 34996ft 549kts
24-May-17 18:46 -25.645257 162.248971 38 34998ft 549kts
24-May-17 18:47 -25.543654 162.364466 38 35001ft 549kts
24-May-17 18:48 -25.444048 162.477401 38 35003ft 549kts
24-May-17 18:49 -25.344246 162.590274 38 35005ft 549kts
24-May-17 18:50 -25.243704 162.703700 37 34984ft 548kts
24-May-17 18:51 -25.143585 162.816356 37 34988ft 548kts
24-May-17 18:52 -25.042828 162.929544 36 34991ft 552kts
24-May-17 18:53 -24.941311 163.043162 35 34993ft 554kts
24-May-17 18:54 -24.840829 163.155149 35 34997ft 554kts
24-May-17 18:55 -24.738523 163.268951 35 35000ft 554kts
24-May-17 18:56 -24.635873 163.382866 35 35003ft 554kts
24-May-17 18:57 -24.534060 163.495580 35 35005ft 554kts
24-May-17 18:58 -24.432730 163.607486 35 35008ft 554kts
24-May-17 18:59 -24.330171 163.720477 35 34987ft 553kts
24-May-17 19:00 -24.228369 163.832352 35 34988ft 553kts
24-May-17 19:01 -24.124775 163.945927 35 34990ft 553kts
24-May-17 19:02 -24.022423 164.057872 35 34993ft 553kts
24-May-17 19:03 -23.919337 164.170340 35 34996ft 553kts
24-May-17 19:04 -23.816916 164.281824 35 35001ft 553kts
24-May-17 19:05 -23.713471 164.394157 35 35003ft 553kts
24-May-17 19:06 -23.610807 164.505380 35 35006ft 553kts
24-May-17 19:07 -23.508877 164.615550 35 35009ft 553kts
24-May-17 19:08 -23.405624 164.726881 34 34988ft 552kts
24-May-17 19:09 -23.301881 164.838455 34 34988ft 552kts
24-May-17 19:10 -23.197537 164.950428 34 34990ft 552kts
24-May-17 19:11 -23.093836 165.061444 34 34993ft 552kts
24-May-17 19:12 -22.989905 165.172366 35 34996ft 551kts
24-May-17 19:13 -22.886171 165.282881 35 34999ft 549kts
24-May-17 19:14 -22.782154 165.393567 36 35002ft 549kts
24-May-17 19:15 -22.678253 165.503793 36 35005ft 549kts
24-May-17 19:16 -22.574112 165.614026 36 35007ft 549kts
24-May-17 19:17 -22.313524 165.888764 35 34990ft 548kts
24-May-17 19:18 -22.106431 166.106041 35 34995ft 548kts
24-May-17 19:19 -21.902649 166.306362 31 34999ft 543kts
24-May-17 19:20 -21.681525 166.509310 31 35004ft 543kts
24-May-17 19:21 -21.449499 166.721428 30 35052ft 541kts
24-May-17 19:22 -21.180590 166.966110 30 36650ft 537kts
24-May-17 19:23 -20.810110 167.301237 33 36971ft 527kts
24-May-17 19:24 -20.449495 167.625159 33 36977ft 527kts
24-May-17 19:25 -20.078072 167.955243 32 36964ft 527kts
24-May-17 19:26 -19.705795 168.283976 32 36971ft 527kts
24-May-17 19:27 -19.331941 168.612042 32 36977ft 527kts
24-May-17 19:28 -18.961583 168.935419 33 36964ft 524kts
24-May-17 19:29 -18.597359 169.251841 34 36969ft 518kts
24-May-17 19:30 -18.227382 169.571285 34 36973ft 518kts
24-May-17 19:31 -17.860235 169.886491 34 36964ft 518kts
24-May-17 19:32 -17.488872 170.203561 34 36968ft 518kts
24-May-17 19:33 -17.126518 170.511285 34 36972ft 518kts
24-May-17 19:34 -16.740753 170.837142 35 36919ft 509kts
24-May-17 19:35 -16.381165 171.139312 35 36913ft 508kts
24-May-17 19:36 -15.876737 171.560737 35 36917ft 508kts
24-May-17 19:37 -15.449184 171.915749 35 36911ft 508kts
24-May-17 19:38 -15.016236 172.273262 35 36915ft 507kts
24-May-17 19:39 -14.663704 172.562823 36 36915ft 500kts
24-May-17 19:40 -14.167123 172.968604 36 36911ft 499kts
24-May-17 19:41 -13.815534 173.254488 36 36913ft 499kts
24-May-17 19:42 -13.387130 173.601317 36 36915ft 499kts
24-May-17 19:43 -12.961299 173.944408 36 36911ft 493kts
24-May-17 19:44 -12.536866 174.284958 36 36913ft 493kts
24-May-17 19:45 -12.057034 174.668143 36 36998ft 493kts
24-May-17 19:46 -11.714541 174.940553 36 36999ft 493kts
24-May-17 19:47 -11.298459 175.270317 37 37000ft 493kts
24-May-17 19:48 -10.882356 175.598807 38 36999ft 492kts
24-May-17 19:49 -10.471156 175.922354 37 37000ft 491kts
24-May-17 19:50 -10.056615 176.247355 37 37000ft 491kts
24-May-17 19:51 -9.648988 176.566888 38 36999ft 491kts
24-May-17 19:52 -9.244192 176.883374 37 37000ft 491kts
24-May-17 19:53 -8.832943 177.203939 38 36999ft 489kts
24-May-17 19:54 -8.418033 177.526422 38 36999ft 489kts
24-May-17 19:55 -8.004427 177.847000 38 37001ft 489kts
24-May-17 19:56 -7.591792 178.165990 38 36999ft 489kts
24-May-17 19:57 -7.172003 178.489699 38 36999ft 489kts
24-May-17 19:58 -6.759489 178.807046 38 37000ft 486kts
24-May-17 19:59 -6.346772 179.123848 38 37000ft 488kts
24-May-17 20:00 -5.930774 179.442511 38 37000ft 488kts
24-May-17 20:01 -5.521491 179.755421 38 37000ft 488kts
24-May-17 20:02 -5.110945 -179.931259 37 36888ft 489kts
24-May-17 20:03 -4.726710 -179.579950 44 36884ft 486kts
24-May-17 20:04 -4.357994 -179.220565 44 36885ft 486kts
24-May-17 20:05 -3.988147 -178.860597 44 36885ft 486kts
24-May-17 20:06 -3.618283 -178.501092 44 36884ft 486kts
24-May-17 20:07 -3.247743 -178.141361 44 36885ft 486kts
24-May-17 20:08 -2.877453 -177.782205 44 36884ft 492kts
24-May-17 20:09 -2.499207 -177.415797 44 36885ft 492kts
24-May-17 20:10 -2.119632 -177.048331 43 36885ft 493kts
24-May-17 20:11 -1.751098 -176.691862 43 36886ft 492kts
24-May-17 20:12 -1.405919 -176.358135 43 36886ft 492kts
24-May-17 20:13 -0.915848 -175.884561 42 36885ft 502kts
24-May-17 20:14 -0.766348 -175.740160 42 36886ft 502kts
24-May-17 20:15 -0.666116 -175.643348 42 36886ft 502kts
24-May-17 20:16 -0.566116 -175.546750 42 36887ft 502kts
24-May-17 20:17 -0.465941 -175.450005 42 36888ft 502kts
24-May-17 20:18 -0.366039 -175.353517 42 36888ft 502kts
24-May-17 20:19 -0.265729 -175.256640 42 36883ft 502kts
24-May-17 20:20 -0.165590 -175.159946 42 36884ft 502kts
24-May-17 20:21 -0.065955 -175.063715 42 36884ft 499kts
24-May-17 20:22 0.032877 -174.967256 42 36885ft 498kts
24-May-17 20:23 0.130896 -174.869615 43 36886ft 498kts
24-May-17 20:24 0.228653 -174.772231 43 36886ft 498kts
24-May-17 20:25 0.583773 -174.418440 43 36888ft 498kts
24-May-17 20:26 0.780654 -174.222260 43 36883ft 498kts
24-May-17 20:27 1.210558 -173.793802 44 36885ft 495kts
24-May-17 20:28 1.519451 -173.485818 44 36886ft 495kts
24-May-17 20:29 1.789261 -173.216700 44 36883ft 495kts
24-May-17 20:30 2.062603 -172.943942 44 36831ft 492kts
24-May-17 20:31 2.337658 -172.669319 44 36831ft 489kts
24-May-17 20:32 2.611296 -172.395955 44 36831ft 489kts
24-May-17 20:33 2.881351 -172.126002 44 36830ft 489kts
24-May-17 20:34 3.158785 -171.848480 46 36829ft 494kts
24-May-17 20:35 3.434952 -171.571993 46 36830ft 494kts
24-May-17 20:36 3.709034 -171.297353 46 36832ft 494kts
24-May-17 20:37 3.983126 -171.022488 46 36832ft 491kts
24-May-17 20:38 4.326514 -170.677660 46 36829ft 484kts
24-May-17 20:39 4.505089 -170.498173 46 36829ft 484kts
24-May-17 20:41 4.532897 -170.470208 46 36829ft 484kts
24-May-17 20:42 4.595663 -170.407095 46 36829ft 484kts
24-May-17 20:43 4.663681 -170.338657 47 36831ft 484kts
24-May-17 20:44 4.914368 -170.086288 46 36832ft 484kts
24-May-17 20:45 5.180158 -169.750494 57 36828ft 501kts
24-May-17 20:46 5.503771 -169.301539 57 36831ft 501kts
24-May-17 20:47 5.937266 -168.698650 56 36838ft 506kts
24-May-17 20:48 6.352966 -168.118759 56 36833ft 506kts
24-May-17 20:49 6.637214 -167.721186 56 36827ft 505kts
24-May-17 20:50 6.828516 -167.453126 56 36833ft 505kts
24-May-17 20:51 7.023169 -167.179771 54 36832ft 517kts
24-May-17 20:52 7.105093 -167.064796 54 36832ft 517kts
24-May-17 20:53 7.188308 -166.947762 53 36829ft 514kts
24-May-17 20:54 7.258924 -166.848393 53 36831ft 511kts
24-May-17 20:55 7.330968 -166.746984 53 36832ft 509kts
24-May-17 20:56 7.413299 -166.630996 53 36833ft 509kts
24-May-17 20:57 7.481332 -166.535081 53 36834ft 509kts
24-May-17 20:58 7.548999 -166.439591 53 36834ft 509kts
24-May-17 20:59 7.630871 -166.324019 53 36828ft 509kts
24-May-17 21:00 7.827802 -166.045794 52 36829ft 509kts
24-May-17 21:01 8.154556 -165.582734 52 36831ft 509kts
24-May-17 21:02 8.508194 -165.079915 53 36828ft 509kts
24-May-17 21:03 8.744336 -164.743093 53 36829ft 506kts
24-May-17 21:04 8.773166 -164.701902 53 36827ft 506kts
24-May-17 21:05 8.854330 -164.585927 53 36832ft 506kts
24-May-17 21:06 8.935160 -164.470293 53 36835ft 506kts
24-May-17 21:07 9.084664 -164.256073 52 36826ft 516kts
24-May-17 21:08 9.407643 -163.792368 52 36830ft 518kts
24-May-17 21:09 9.694650 -163.378762 52 36833ft 518kts
24-May-17 21:10 9.991737 -162.949113 52 36832ft 517kts
24-May-17 21:11 10.290398 -162.515625 52 36832ft 517kts
24-May-17 21:12 10.597855 -162.067597 52 36828ft 517kts
24-May-17 21:13 10.930905 -161.580158 52 36833ft 520kts
24-May-17 21:14 11.303916 -161.031695 51 37024ft 525kts
24-May-17 21:15 11.678175 -160.478401 51 37030ft 524kts
24-May-17 21:16 12.045455 -159.914501 58 37024ft 527kts
24-May-17 21:17 12.360217 -159.319568 58 37019ft 527kts
24-May-17 21:18 12.673587 -158.723287 58 37028ft 526kts
24-May-17 21:19 12.982245 -158.132040 58 37023ft 527kts
24-May-17 21:20 13.298154 -157.522713 58 37028ft 531kts
24-May-17 21:21 13.599352 -156.937623 58 37034ft 530kts
24-May-17 21:22 13.878826 -156.391024 58 37041ft 530kts
24-May-17 21:23 14.156974 -155.843325 58 37036ft 530kts
24-May-17 21:24 14.458462 -155.245340 59 37077ft 530kts
24-May-17 21:25 14.764096 -154.634364 59 37084ft 530kts
24-May-17 21:26 15.084143 -153.989276 59 37080ft 531kts
24-May-17 21:27 15.359689 -153.429347 58 37240ft 531kts
24-May-17 21:28 15.644355 -152.846230 58 39082ft 530kts
24-May-17 21:29 15.942449 -152.230525 59 39076ft 531kts
24-May-17 21:30 16.136172 -151.827429 59 39082ft 531kts
24-May-17 21:31 16.316462 -151.450186 59 39087ft 531kts
24-May-17 21:32 16.563567 -150.929635 59 39080ft 531kts
24-May-17 21:33 16.900378 -150.213528 59 39075ft 531kts
24-May-17 21:34 17.169906 -149.609282 61 39085ft 529kts
24-May-17 21:35 17.359222 -149.170759 62 39077ft 529kts
24-May-17 21:36 17.554291 -148.715630 62 39083ft 532kts
24-May-17 21:37 17.747534 -148.261362 62 39077ft 532kts
24-May-17 21:38 17.940566 -147.804123 62 39082ft 532kts
24-May-17 21:39 18.129698 -147.352675 62 39088ft 532kts
24-May-17 21:40 18.310985 -146.916678 63 39080ft 533kts
24-May-17 21:41 18.495399 -146.469681 63 39086ft 534kts
24-May-17 21:42 18.683831 -146.009326 63 39079ft 534kts
24-May-17 21:43 18.872606 -145.544312 63 39085ft 534kts
24-May-17 21:44 19.059024 -145.081262 64 39078ft 533kts
24-May-17 21:45 19.244560 -144.616461 64 39084ft 533kts
24-May-17 21:46 19.423404 -144.164611 64 39077ft 533kts
24-May-17 21:47 19.609447 -143.690480 64 39083ft 533kts
24-May-17 21:48 19.789067 -143.228635 64 39077ft 533kts
24-May-17 21:49 19.967033 -142.766955 64 39082ft 533kts
24-May-17 21:50 20.129294 -142.342396 65 39085ft 533kts
24-May-17 21:51 20.297388 -141.898764 65 39081ft 534kts
24-May-17 21:52 20.473623 -141.429416 65 39086ft 534kts
24-May-17 21:53 20.643110 -140.973804 65 39080ft 534kts
24-May-17 21:54 20.819995 -140.493738 65 39086ft 534kts
24-May-17 21:55 20.993561 -140.018043 65 39080ft 534kts
24-May-17 21:56 21.224770 -139.590462 55 39085ft 532kts
24-May-17 21:57 21.455118 -139.167371 56 39077ft 533kts
24-May-17 21:58 21.689638 -138.733202 56 39083ft 533kts
24-May-17 21:59 21.924569 -138.294738 56 39074ft 533kts
24-May-17 22:00 22.152558 -137.865722 56 39081ft 534kts
24-May-17 22:01 22.377584 -137.438818 56 39086ft 533kts
24-May-17 22:02 22.605740 -137.002409 57 39080ft 534kts
24-May-17 22:03 22.827701 -136.574202 57 39085ft 532kts
24-May-17 22:04 23.055523 -136.130948 58 39080ft 539kts
24-May-17 22:05 23.286355 -135.677763 58 39235ft 540kts
24-May-17 22:06 23.609907 -135.035602 59 40914ft 538kts
24-May-17 22:07 23.922257 -134.407467 59 40923ft 537kts
24-May-17 22:08 24.249519 -133.740512 60 40917ft 537kts
24-May-17 22:09 24.596603 -133.022776 60 40915ft 535kts
24-May-17 22:10 24.936585 -132.308820 61 40912ft 534kts
24-May-17 22:11 25.238125 -131.666154 61 40922ft 545kts
24-May-17 22:12 25.509181 -131.080580 62 40922ft 545kts
24-May-17 22:13 25.766162 -130.518224 62 40931ft 542kts
24-May-17 22:14 26.038196 -129.946680 50 40940ft 542kts
24-May-17 22:15 26.410375 -129.420227 49 40930ft 541kts
24-May-17 22:16 26.818406 -128.836175 50 40926ft 538kts
24-May-17 22:17 27.215116 -128.260896 50 40919ft 551kts
24-May-17 22:18 27.589657 -127.710797 50 40929ft 551kts
24-May-17 22:19 27.891639 -127.262177 50 40924ft 552kts
24-May-17 22:20 28.223103 -126.764316 50 40925ft 548kts
24-May-17 22:21 28.600225 -126.190740 51 40922ft 548kts
24-May-17 22:22 28.964093 -125.629842 51 40941ft 548kts
24-May-17 22:23 29.272242 -125.148881 51 40929ft 562kts
24-May-17 22:24 29.458238 -124.855864 51 40935ft 562kts
24-May-17 22:25 29.549389 -124.711488 51 40938ft 562kts
24-May-17 22:26 29.640455 -124.566744 51 40941ft 562kts
24-May-17 22:27 29.731530 -124.421475 51 40944ft 562kts
24-May-17 22:28 29.822407 -124.276013 52 40932ft 562kts
24-May-17 22:29 29.912891 -124.130646 52 40935ft 562kts
24-May-17 22:30 30.168066 -123.717887 52 40935ft 562kts
24-May-17 22:31 30.506366 -123.164063 52 40930ft 562kts
24-May-17 22:32 30.785809 -122.700730 53 40940ft 557kts
24-May-17 22:33 31.060989 -122.239080 53 40936ft 566kts
24-May-17 22:34 31.372533 -121.709821 53 40937ft 566kts
24-May-17 22:35 31.618756 -121.215933 67 40932ft 567kts
24-May-17 22:36 31.751898 -120.829145 67 40936ft 571kts
24-May-17 22:37 31.810797 -120.656601 67 40942ft 571kts
24-May-17 22:38 31.869335 -120.484206 67 40945ft 571kts
24-May-17 22:39 31.926038 -120.316435 68 40932ft 571kts
24-May-17 22:40 32.002303 -120.192963 43 40935ft 567kts
24-May-17 22:41 32.115594 -120.049685 43 40931ft 566kts
24-May-17 22:42 32.220893 -119.916211 43 40932ft 566kts
24-May-17 22:43 32.306846 -119.806897 43 40934ft 566kts
24-May-17 22:44 32.431217 -119.648138 43 40938ft 566kts
24-May-17 22:45 32.519589 -119.534908 43 40941ft 566kts
24-May-17 22:46 32.625878 -119.398251 43 40944ft 566kts
24-May-17 22:47 32.721585 -119.274767 43 40931ft 566kts
24-May-17 22:48 32.827871 -119.137119 43 40934ft 567kts
24-May-17 22:49 32.936755 -118.995597 44 40936ft 565kts
24-May-17 22:50 33.024624 -118.880973 44 40943ft 561kts
24-May-17 22:51 33.123648 -118.751333 44 40942ft 561kts
24-May-17 22:52 33.219210 -118.622845 46 40947ft 561kts
24-May-17 22:53 33.313286 -118.485777 58 38048ft 560kts
24-May-17 22:54 33.350916 -118.350045 104 18756ft 300kts
24-May-17 22:55 33.331380 -118.233860 94 14127ft 376kts
24-May-17 22:56 33.327850 -118.113607 68 12441ft 340kts
24-May-17 22:57 33.379420 -118.029916 42 11078ft 307kts
24-May-17 22:58 33.451150 -118.001126 354 9724ft 266kts
24-May-17 22:59 33.524230 -118.002815 353 8715ft 261kts
24-May-17 23:00 33.595028 -118.005980 353 7718ft 259kts
24-May-17 23:01 33.660150 -118.013527 339 6985ft 231kts
24-May-17 23:02 33.713546 -118.031099 339 7002ft 234kts
24-May-17 23:03 33.765576 -118.048925 339 6562ft 235kts
24-May-17 23:04 33.818351 -118.071976 334 5671ft 224kts
24-May-17 23:05 33.867275 -118.095425 336 4807ft 219kts
24-May-17 23:06 33.895060 -118.133530 293 4104ft 217kts
24-May-17 23:07 33.910717 -118.176996 292 3854ft 189kts
24-May-17 23:08 33.924451 -118.216560 291 3216ft 179kts
24-May-17 23:09 33.939627 -118.260209 291 2429ft 170kts
24-May-17 23:10 33.964344 -118.236690 308 1647ft 164kts
24-May-17 23:11 33.977749 -118.168995 259 3413ft 174kts
24-May-17 23:12 33.971433 -118.212272 262 3094ft 178kts
24-May-17 23:13 33.965950 -118.265986 261 2377ft 177kts
24-May-17 23:14 33.960849 -118.316353 260 1540ft 158kts
24-May-17 23:15 33.956284 -118.359064 261 801ft 136kts
24-May-17 23:16 33.952192 -118.401166 260 160ft 126kts
24-May-17 23:17 33.950067 -118.421791 262 123ft 23kts
24-May-17 23:18 33.948598 -118.426663 220 117ft 9kts
24-May-17 23:19 33.946376 -118.427003 84 113ft 10kts
24-May-17 23:20 33.946713 -118.423490 81 117ft 13kts
24-May-17 23:21 33.947165 -118.418987 82 123ft 18kts
24-May-17 23:22 33.947388 -118.413921 148 123ft 7kts
24-May-17 23:23 33.945618 -118.412608 173 123ft 9kts
24-May-17 23:24 33.944607 -118.411644 83 124ft 4kts
24-May-17 23:25 33.944636 -118.411340 83 124ft 0kts
24-May-17 23:26 33.965725 -118.268216 261 2339ft 176kts
24-May-17 23:27 33.964793 -118.277438 261 2179ft 175kts
24-May-17 23:28 33.964793 -118.277438 261 2179ft 175kts
24-May-17 23:29 33.960619 -118.318620 260 1504ft 157kts
24-May-17 23:30 33.959615 -118.328500 260 1335ft 146kts
24-May-17 23:31 33.955772 -118.364282 261 752ft 132kts
24-May-17 23:32 33.952596 -118.397176 261 215ft 126kts

Navigation Log

Ident Type
Flight plan parsing failed, navigation log unavailable